createdAt,value
2019-03-19T00:00:29.386Z,6.40
2019-03-19T00:01:29.319Z,6.40
2019-03-19T00:02:29.270Z,5.80
2019-03-19T00:03:29.252Z,6.20
2019-03-19T00:04:29.199Z,5.90
2019-03-19T00:05:29.142Z,6.20
2019-03-19T00:06:29.089Z,5.90
2019-03-19T00:07:29.064Z,6.40
2019-03-19T00:08:28.983Z,6.70
2019-03-19T00:09:28.934Z,6.60
2019-03-19T00:10:28.902Z,6.20
2019-03-19T00:11:28.841Z,6.70
2019-03-19T00:12:28.802Z,6.80
2019-03-19T00:13:28.779Z,5.90
2019-03-19T00:14:28.751Z,6.30
2019-03-19T00:15:28.663Z,6.50
2019-03-19T00:16:28.608Z,6.50
2019-03-19T00:17:28.595Z,6.80
2019-03-19T00:18:28.516Z,6.10
2019-03-19T00:19:28.493Z,6.30
2019-03-19T00:20:28.417Z,6.40
2019-03-19T00:21:28.387Z,6.70
2019-03-19T00:22:28.353Z,6.90
2019-03-19T00:23:28.277Z,6.60
2019-03-19T00:24:28.230Z,6.50
2019-03-19T00:25:30.302Z,6.50
2019-03-19T00:26:28.141Z,6.60
2019-03-19T00:27:28.098Z,7.20
2019-03-19T00:28:28.069Z,6.50
2019-03-19T00:29:27.992Z,6.90
2019-03-19T00:30:27.950Z,6.70
2019-03-19T00:31:27.923Z,6.70
2019-03-19T00:32:27.873Z,6.80
2019-03-19T00:33:27.806Z,7.50
2019-03-19T00:34:27.760Z,6.70
2019-03-19T00:35:27.714Z,7.10
2019-03-19T00:36:27.668Z,6.80
2019-03-19T00:37:27.641Z,7.20
2019-03-19T00:38:27.570Z,7.20
2019-03-19T00:39:27.522Z,6.80
2019-03-19T00:40:27.504Z,6.80
2019-03-19T00:41:27.438Z,6.80
2019-03-19T00:42:27.405Z,6.80
2019-03-19T00:43:27.338Z,6.60
2019-03-19T00:44:27.307Z,6.60
2019-03-19T00:45:27.255Z,6.40
2019-03-19T00:46:27.228Z,7.00
2019-03-19T00:47:27.145Z,6.80
2019-03-19T00:48:27.094Z,6.90
2019-03-19T00:49:27.068Z,7.00
2019-03-19T00:50:27.004Z,6.40
2019-03-19T00:51:26.986Z,6.40
2019-03-19T00:52:26.910Z,6.80
2019-03-19T00:53:26.862Z,6.60
2019-03-19T00:54:26.822Z,6.70
2019-03-19T00:55:26.764Z,6.80
2019-03-19T00:56:26.743Z,7.40
2019-03-19T00:57:26.669Z,6.50
2019-03-19T00:58:26.676Z,6.60
2019-03-19T00:59:26.577Z,6.50
2019-03-19T01:00:26.548Z,7.20
2019-03-19T01:01:26.485Z,6.40
2019-03-19T01:02:26.440Z,6.80
2019-03-19T01:03:26.409Z,6.30
2019-03-19T01:04:26.345Z,6.20
2019-03-19T01:05:26.297Z,6.40
2019-03-19T01:06:26.258Z,6.60
2019-03-19T01:07:26.200Z,7.10
2019-03-19T01:08:26.166Z,6.70
2019-03-19T01:09:26.139Z,6.50
2019-03-19T01:10:26.086Z,6.40
2019-03-19T01:11:26.007Z,6.10
2019-03-19T01:12:25.996Z,6.40
2019-03-19T01:13:25.919Z,6.90
2019-03-19T01:14:25.865Z,6.20
2019-03-19T01:15:25.818Z,5.80
2019-03-19T01:16:25.804Z,6.30
2019-03-19T01:17:25.732Z,6.00
2019-03-19T01:18:25.686Z,5.80
2019-03-19T01:19:25.639Z,5.90
2019-03-19T01:20:25.607Z,5.70
2019-03-19T01:21:25.538Z,6.10
2019-03-19T01:22:25.498Z,6.20
2019-03-19T01:23:25.471Z,6.10
2019-03-19T01:24:25.397Z,6.10
2019-03-19T01:25:25.345Z,5.70
2019-03-19T01:26:25.302Z,6.00
2019-03-19T01:27:25.249Z,6.30
2019-03-19T01:28:25.232Z,6.20
2019-03-19T01:29:25.163Z,6.50
2019-03-19T01:30:25.117Z,6.90
2019-03-19T01:31:25.097Z,6.70
2019-03-19T01:32:25.028Z,6.60
2019-03-19T01:33:24.998Z,7.20
2019-03-19T01:34:24.921Z,6.30
2019-03-19T01:35:24.875Z,6.40
2019-03-19T01:36:24.838Z,6.50
2019-03-19T01:37:24.791Z,6.70
2019-03-19T01:38:24.742Z,7.50
2019-03-19T01:39:24.707Z,7.10
2019-03-19T01:40:24.645Z,6.80
2019-03-19T01:41:24.625Z,6.70
2019-03-19T01:42:24.548Z,7.20
2019-03-19T01:43:24.515Z,6.80
2019-03-19T01:44:24.448Z,7.20
2019-03-19T01:45:24.403Z,7.60
2019-03-19T01:46:24.358Z,6.60
2019-03-19T01:47:24.335Z,6.60
2019-03-19T01:48:24.263Z,6.80
2019-03-19T01:49:24.212Z,6.50
2019-03-19T01:50:24.163Z,6.70
2019-03-19T01:51:24.118Z,7.20
2019-03-19T01:52:24.064Z,7.20
2019-03-19T01:53:24.037Z,7.10
2019-03-19T01:54:23.979Z,6.50
2019-03-19T01:55:25.635Z,6.80
2019-03-19T01:56:23.881Z,6.80
2019-03-19T01:57:23.828Z,6.70
2019-03-19T01:58:23.934Z,6.10
2019-03-19T01:59:23.729Z,6.60
2019-03-19T02:00:23.712Z,6.70
2019-03-19T02:01:23.649Z,5.90
2019-03-19T02:02:23.598Z,6.50
2019-03-19T02:03:23.549Z,6.40
2019-03-19T02:04:23.499Z,6.90
2019-03-19T02:05:23.488Z,6.90
2019-03-19T02:06:23.401Z,6.60
2019-03-19T02:07:23.351Z,7.20
2019-03-19T02:08:23.315Z,7.50
2019-03-19T02:09:23.286Z,7.10
2019-03-19T02:10:23.235Z,7.60
2019-03-19T02:11:23.199Z,6.70
2019-03-19T02:12:23.122Z,6.60
2019-03-19T02:13:23.073Z,7.00
2019-03-19T02:14:23.031Z,6.50
2019-03-19T02:15:22.975Z,6.50
2019-03-19T02:16:22.948Z,5.90
2019-03-19T02:17:22.876Z,6.30
2019-03-19T02:18:22.834Z,6.90
2019-03-19T02:19:22.778Z,6.70
2019-03-19T02:20:22.765Z,7.60
2019-03-19T02:21:22.717Z,7.50
2019-03-19T02:22:22.648Z,9.40
2019-03-19T02:23:22.602Z,8.10
2019-03-19T02:24:22.545Z,7.40
2019-03-19T02:25:22.492Z,7.20
2019-03-19T02:26:22.480Z,7.50
2019-03-19T02:27:22.431Z,7.00
2019-03-19T02:28:22.358Z,7.30
2019-03-19T02:29:22.306Z,7.10
2019-03-19T02:30:22.279Z,6.70
2019-03-19T02:31:22.234Z,6.90
2019-03-19T02:32:22.170Z,7.20
2019-03-19T02:33:22.121Z,6.90
2019-03-19T02:34:22.078Z,6.40
2019-03-19T02:35:22.026Z,6.50
2019-03-19T02:36:22.000Z,6.60
2019-03-19T02:37:21.953Z,6.20
2019-03-19T02:38:21.879Z,6.70
2019-03-19T02:39:21.834Z,6.90
2019-03-19T02:40:21.793Z,7.20
2019-03-19T02:41:21.754Z,6.80
2019-03-19T02:42:21.722Z,7.30
2019-03-19T02:43:22.956Z,7.60
2019-03-19T02:44:21.599Z,7.90
2019-03-19T02:45:21.568Z,7.80
2019-03-19T02:46:21.504Z,7.50
2019-03-19T02:47:21.480Z,7.00
2019-03-19T02:48:21.406Z,7.60
2019-03-19T02:49:21.358Z,7.50
2019-03-19T02:50:21.304Z,8.70
2019-03-19T02:51:21.255Z,8.00
2019-03-19T02:52:21.241Z,8.30
2019-03-19T02:53:21.171Z,7.80
2019-03-19T02:54:21.123Z,7.40
2019-03-19T02:55:21.079Z,7.90
2019-03-19T02:56:32.826Z,7.30
2019-03-19T02:57:21.000Z,7.70
2019-03-19T02:58:20.931Z,7.00
2019-03-19T02:59:20.884Z,7.50
2019-03-19T03:00:20.853Z,8.40
2019-03-19T03:01:20.814Z,8.80
2019-03-19T03:02:20.734Z,8.30
2019-03-19T03:03:20.685Z,7.80
2019-03-19T03:04:20.653Z,9.50
2019-03-19T03:05:20.616Z,8.40
2019-03-19T03:06:20.579Z,8.90
2019-03-19T03:07:20.501Z,9.10
2019-03-19T03:08:20.458Z,9.40
2019-03-19T03:09:20.398Z,8.70
2019-03-19T03:10:20.349Z,8.30
2019-03-19T03:11:20.326Z,7.80
2019-03-19T03:12:20.295Z,9.70
2019-03-19T03:13:20.214Z,9.80
2019-03-19T03:14:20.163Z,11.60
2019-03-19T03:15:20.113Z,11.70
2019-03-19T03:16:20.086Z,12.10
2019-03-19T03:17:20.020Z,14.00
2019-03-19T03:18:20.002Z,11.90
2019-03-19T03:19:19.929Z,11.80
2019-03-19T03:20:19.872Z,10.10
2019-03-19T03:21:19.824Z,10.00
2019-03-19T03:22:19.785Z,9.40
2019-03-19T03:23:19.751Z,9.60
2019-03-19T03:24:19.691Z,9.90
2019-03-19T03:25:19.644Z,9.20
2019-03-19T03:26:19.592Z,10.40
2019-03-19T03:27:19.605Z,11.70
2019-03-19T03:28:19.526Z,13.20
2019-03-19T03:29:19.449Z,11.60
2019-03-19T03:30:19.409Z,12.40
2019-03-19T03:31:19.353Z,13.60
2019-03-19T03:32:19.366Z,13.60
2019-03-19T03:33:19.250Z,12.60
2019-03-19T03:34:19.237Z,13.10
2019-03-19T03:35:19.183Z,11.70
2019-03-19T03:36:19.136Z,12.90
2019-03-19T03:37:19.102Z,15.10
2019-03-19T03:38:19.021Z,18.70
2019-03-19T03:39:18.972Z,14.50
2019-03-19T03:40:18.922Z,14.60
2019-03-19T03:41:18.875Z,13.30
2019-03-19T03:42:18.821Z,11.30
2019-03-19T03:43:18.800Z,11.40
2019-03-19T03:44:18.751Z,11.10
2019-03-19T03:45:18.687Z,11.20
2019-03-19T03:46:18.635Z,11.80
2019-03-19T03:47:18.607Z,11.90
2019-03-19T03:48:18.577Z,13.20
2019-03-19T03:49:18.540Z,13.90
2019-03-19T03:50:18.474Z,15.50
2019-03-19T03:51:18.396Z,18.50
2019-03-19T03:52:18.367Z,16.80
2019-03-19T03:53:18.383Z,14.80
2019-03-19T03:54:18.251Z,13.20
2019-03-19T03:55:18.251Z,11.90
2019-03-19T03:56:18.174Z,13.50
2019-03-19T03:57:18.119Z,14.90
2019-03-19T03:58:18.064Z,15.60
2019-03-19T03:59:18.019Z,14.50
2019-03-19T04:00:17.993Z,13.70
2019-03-19T04:01:17.910Z,13.30
2019-03-19T04:02:17.908Z,14.10
2019-03-19T04:03:17.826Z,12.90
2019-03-19T04:04:17.768Z,13.10
2019-03-19T04:05:17.732Z,12.70
2019-03-19T04:06:17.673Z,12.90
2019-03-19T04:07:17.636Z,13.60
2019-03-19T04:08:17.609Z,14.10
2019-03-19T04:09:17.543Z,13.30
2019-03-19T04:10:17.494Z,14.30
2019-03-19T04:11:17.439Z,15.70
2019-03-19T04:12:17.388Z,16.60
2019-03-19T04:13:17.366Z,18.70
2019-03-19T04:14:17.290Z,17.10
2019-03-19T04:15:17.257Z,15.60
2019-03-19T04:16:17.201Z,14.50
2019-03-19T04:17:17.264Z,14.90
2019-03-19T04:18:17.140Z,14.60
2019-03-19T04:19:17.054Z,15.00
2019-03-19T04:20:17.009Z,14.50
2019-03-19T04:21:16.993Z,15.10
2019-03-19T04:22:16.925Z,15.00
2019-03-19T04:23:16.876Z,15.10
2019-03-19T04:24:16.810Z,14.20
2019-03-19T04:25:16.783Z,12.40
2019-03-19T04:26:16.722Z,13.70
2019-03-19T04:27:16.857Z,13.50
2019-03-19T04:28:16.628Z,14.30
2019-03-19T04:29:16.615Z,16.40
2019-03-19T04:30:16.555Z,20.10
2019-03-19T04:31:16.487Z,21.40
2019-03-19T04:32:16.427Z,18.20
2019-03-19T04:33:16.386Z,16.90
2019-03-19T04:34:16.337Z,17.30
2019-03-19T04:35:16.311Z,16.30
2019-03-19T04:36:16.235Z,16.60
2019-03-19T04:37:16.213Z,15.30
2019-03-19T04:38:16.141Z,14.50
2019-03-19T04:39:16.090Z,14.40
2019-03-19T04:40:16.063Z,14.60
2019-03-19T04:41:16.013Z,14.70
2019-03-19T04:42:15.977Z,13.50
2019-03-19T04:43:15.909Z,13.40
2019-03-19T04:44:15.852Z,15.70
2019-03-19T04:45:15.802Z,18.80
2019-03-19T04:46:15.776Z,17.50
2019-03-19T04:47:15.706Z,20.10
2019-03-19T04:48:15.690Z,20.50
2019-03-19T04:49:15.621Z,19.20
2019-03-19T04:50:15.569Z,18.20
2019-03-19T04:51:15.515Z,17.20
2019-03-19T04:52:15.474Z,16.70
2019-03-19T04:53:15.449Z,15.80
2019-03-19T04:54:15.382Z,14.80
2019-03-19T04:55:15.332Z,15.90
2019-03-19T04:56:15.301Z,15.30
2019-03-19T04:57:26.039Z,15.70
2019-03-19T04:58:15.201Z,14.00
2019-03-19T04:59:15.158Z,16.10
2019-03-19T05:00:15.091Z,15.10
2019-03-19T05:01:15.065Z,15.20
2019-03-19T05:02:15.006Z,13.80
2019-03-19T05:03:14.953Z,14.80
2019-03-19T05:04:14.892Z,13.30
2019-03-19T05:05:14.861Z,14.90
2019-03-19T05:06:14.825Z,17.00
2019-03-19T05:07:14.757Z,16.90
2019-03-19T05:08:14.700Z,17.00
2019-03-19T05:09:14.675Z,16.00
2019-03-19T05:10:14.630Z,14.90
2019-03-19T05:11:14.556Z,17.80
2019-03-19T05:12:14.515Z,15.90
2019-03-19T05:13:14.467Z,16.20
2019-03-19T05:14:14.477Z,15.00
2019-03-19T05:15:14.392Z,14.30
2019-03-19T05:16:14.315Z,13.80
2019-03-19T05:17:14.268Z,14.20
2019-03-19T05:18:14.219Z,15.60
2019-03-19T05:19:14.171Z,18.30
2019-03-19T05:20:14.155Z,22.00
2019-03-19T05:21:14.084Z,20.90
2019-03-19T05:22:14.027Z,20.70
2019-03-19T05:23:13.979Z,18.60
2019-03-19T05:24:13.939Z,18.30
2019-03-19T05:25:13.917Z,22.00
2019-03-19T05:26:13.845Z,18.30
2019-03-19T05:27:14.057Z,15.30
2019-03-19T05:28:13.743Z,16.30
2019-03-19T05:29:13.692Z,16.80
2019-03-19T05:30:13.672Z,15.10
2019-03-19T05:31:13.596Z,15.20
2019-03-19T05:32:13.552Z,18.40
2019-03-19T05:33:13.506Z,15.60
2019-03-19T05:34:13.458Z,16.00
2019-03-19T05:35:13.438Z,14.40
2019-03-19T05:36:13.357Z,15.40
2019-03-19T05:37:13.308Z,18.00
2019-03-19T05:38:13.270Z,18.60
2019-03-19T05:39:13.217Z,16.50
2019-03-19T05:40:13.162Z,15.70
2019-03-19T05:41:13.141Z,16.90
2019-03-19T05:42:13.068Z,17.80
2019-03-19T05:43:13.017Z,17.50
2019-03-19T05:44:12.979Z,16.60
2019-03-19T05:45:12.929Z,15.50
2019-03-19T05:46:12.909Z,18.80
2019-03-19T05:47:12.836Z,18.40
2019-03-19T05:48:12.778Z,17.60
2019-03-19T05:49:12.731Z,23.00
2019-03-19T05:50:12.683Z,22.80
2019-03-19T05:51:12.634Z,22.80
2019-03-19T05:52:12.617Z,17.90
2019-03-19T05:53:12.549Z,21.00
2019-03-19T05:54:12.491Z,23.90
2019-03-19T05:55:12.444Z,20.60
2019-03-19T05:56:12.403Z,20.00
2019-03-19T05:57:12.381Z,18.90
2019-03-19T05:58:12.306Z,13.50
2019-03-19T05:59:12.258Z,13.70
2019-03-19T06:00:12.204Z,15.60
2019-03-19T06:01:12.156Z,15.40
2019-03-19T06:02:12.186Z,14.90
2019-03-19T06:03:12.058Z,14.20
2019-03-19T06:04:12.020Z,14.80
2019-03-19T06:05:11.972Z,14.80
2019-03-19T06:06:11.925Z,14.60
2019-03-19T06:07:11.876Z,15.00
2019-03-19T06:08:11.851Z,14.30
2019-03-19T06:09:11.776Z,16.40
2019-03-19T06:10:11.733Z,16.40
2019-03-19T06:11:11.686Z,18.40
2019-03-19T06:12:11.630Z,15.90
2019-03-19T06:13:11.608Z,19.60
2019-03-19T06:14:11.536Z,20.80
2019-03-19T06:15:11.489Z,18.40
2019-03-19T06:16:11.443Z,20.00
2019-03-19T06:17:11.397Z,18.20
2019-03-19T06:18:11.375Z,17.10
2019-03-19T06:19:11.303Z,16.90
2019-03-19T06:20:11.247Z,16.10
2019-03-19T06:21:11.202Z,16.40
2019-03-19T06:22:11.155Z,15.70
2019-03-19T06:23:11.132Z,11.90
2019-03-19T06:24:11.063Z,13.50
2019-03-19T06:25:11.023Z,13.60
2019-03-19T06:26:10.962Z,12.50
2019-03-19T06:27:10.915Z,14.20
2019-03-19T06:28:10.875Z,11.70
2019-03-19T06:29:10.852Z,9.90
2019-03-19T06:30:10.788Z,9.40
2019-03-19T06:31:10.733Z,8.10
2019-03-19T06:32:10.681Z,8.00
2019-03-19T06:33:10.632Z,7.40
2019-03-19T06:34:10.616Z,6.90
2019-03-19T06:35:10.540Z,6.50
2019-03-19T06:36:10.515Z,6.30
2019-03-19T06:37:10.458Z,5.70
2019-03-19T06:38:10.410Z,6.10
2019-03-19T06:39:10.361Z,5.90
2019-03-19T06:40:10.333Z,6.30
2019-03-19T06:41:10.282Z,5.80
2019-03-19T06:42:10.225Z,5.70
2019-03-19T06:43:10.201Z,6.20
2019-03-19T06:44:10.152Z,5.20
2019-03-19T06:45:10.085Z,5.80
2019-03-19T06:46:10.042Z,5.60
2019-03-19T06:47:10.022Z,5.70
2019-03-19T06:48:09.959Z,5.80
2019-03-19T06:49:09.914Z,5.50
2019-03-19T06:50:09.895Z,5.40
2019-03-19T06:51:09.834Z,5.30
2019-03-19T06:52:09.775Z,5.70
2019-03-19T06:53:09.754Z,5.80
2019-03-19T06:54:09.688Z,5.40
2019-03-19T06:55:09.644Z,5.80
2019-03-19T06:56:09.645Z,5.90
2019-03-19T06:57:09.578Z,5.80
2019-03-19T06:58:11.333Z,5.80
2019-03-19T06:59:09.471Z,6.20
2019-03-19T07:00:09.441Z,6.00
2019-03-19T07:01:09.421Z,5.80
2019-03-19T07:02:09.353Z,6.10
2019-03-19T07:03:09.311Z,5.90
2019-03-19T07:04:09.261Z,5.90
2019-03-19T07:05:09.218Z,6.30
2019-03-19T07:06:09.175Z,5.90
2019-03-19T07:07:09.154Z,5.90
2019-03-19T07:08:09.096Z,5.70
2019-03-19T07:09:09.058Z,6.10
2019-03-19T07:10:09.015Z,5.40
2019-03-19T07:11:08.997Z,5.60
2019-03-19T07:12:08.925Z,6.00
2019-03-19T07:13:08.882Z,5.50
2019-03-19T07:14:08.853Z,5.70
2019-03-19T07:15:08.806Z,5.60
2019-03-19T07:16:08.762Z,5.90
2019-03-19T07:17:08.740Z,5.60
2019-03-19T07:18:08.844Z,6.20
2019-03-19T07:19:08.633Z,5.90
2019-03-19T07:20:08.601Z,5.50
2019-03-19T07:21:08.562Z,5.80
2019-03-19T07:22:08.541Z,6.30
2019-03-19T07:23:08.490Z,5.70
2019-03-19T07:24:08.435Z,6.00
2019-03-19T07:25:08.587Z,6.40
2019-03-19T07:26:08.353Z,6.50
2019-03-19T07:27:08.340Z,6.00
2019-03-19T07:28:08.319Z,6.20
2019-03-19T07:29:08.240Z,6.40
2019-03-19T07:30:08.189Z,6.10
2019-03-19T07:31:08.149Z,6.10
2019-03-19T07:32:08.120Z,6.50
2019-03-19T07:33:08.104Z,6.20
2019-03-19T07:34:08.039Z,6.60
2019-03-19T07:35:08.006Z,7.00
2019-03-19T07:36:07.954Z,6.60
2019-03-19T07:37:07.917Z,6.40
2019-03-19T07:38:07.897Z,6.60
2019-03-19T07:39:07.835Z,6.90
2019-03-19T07:40:07.804Z,7.00
2019-03-19T07:41:07.764Z,7.10
2019-03-19T07:42:07.911Z,7.10
2019-03-19T07:43:07.795Z,7.40
2019-03-19T07:44:07.653Z,6.80
2019-03-19T07:45:07.602Z,7.60
2019-03-19T07:46:07.572Z,7.40
2019-03-19T07:47:07.707Z,6.90
2019-03-19T07:48:07.509Z,7.10
2019-03-19T07:49:07.447Z,7.00
2019-03-19T07:50:07.464Z,7.10
2019-03-19T07:51:07.455Z,6.90
2019-03-19T07:52:07.367Z,7.00
2019-03-19T07:53:07.302Z,7.10
2019-03-19T07:54:07.319Z,6.70
2019-03-19T07:55:07.225Z,7.50
2019-03-19T07:56:07.179Z,7.00
2019-03-19T07:57:07.185Z,7.30
2019-03-19T07:58:07.127Z,7.20
2019-03-19T07:59:07.069Z,6.90
2019-03-19T08:00:07.048Z,6.70
2019-03-19T08:01:06.997Z,7.10
2019-03-19T08:02:06.981Z,6.80
2019-03-19T08:03:15.546Z,7.40
2019-03-19T08:04:06.918Z,7.10
2019-03-19T08:05:06.851Z,7.20
2019-03-19T08:06:06.923Z,7.20
2019-03-19T08:07:06.776Z,6.70
2019-03-19T08:08:06.731Z,7.00
2019-03-19T08:09:06.767Z,7.00
2019-03-19T08:10:06.718Z,6.70
2019-03-19T08:11:06.613Z,7.00
2019-03-19T08:12:06.787Z,7.70
2019-03-19T08:13:06.548Z,7.10
2019-03-19T08:14:06.516Z,6.50
2019-03-19T08:15:06.496Z,6.90
2019-03-19T08:16:06.440Z,7.10
2019-03-19T08:17:06.402Z,7.10
2019-03-19T08:18:06.367Z,7.00
2019-03-19T08:19:06.332Z,7.20
2019-03-19T08:20:06.326Z,7.20
2019-03-19T08:21:06.276Z,7.30
2019-03-19T08:22:06.215Z,7.10
2019-03-19T08:23:06.171Z,7.10
2019-03-19T08:24:06.398Z,7.40
2019-03-19T08:25:06.117Z,7.30
2019-03-19T08:26:06.090Z,7.50
2019-03-19T08:27:06.024Z,7.00
2019-03-19T08:28:05.996Z,7.50
2019-03-19T08:29:05.996Z,7.50
2019-03-19T08:30:05.934Z,7.70
2019-03-19T08:31:05.907Z,7.40
2019-03-19T08:32:05.847Z,7.50
2019-03-19T08:33:05.803Z,8.50
2019-03-19T08:34:05.775Z,7.80
2019-03-19T08:35:05.734Z,6.90
2019-03-19T08:36:09.543Z,7.40
2019-03-19T08:37:05.692Z,7.50
2019-03-19T08:38:05.624Z,7.40
2019-03-19T08:39:05.689Z,7.50
2019-03-19T08:40:05.549Z,7.30
2019-03-19T08:41:05.513Z,7.10
2019-03-19T08:42:05.503Z,8.10
2019-03-19T08:43:05.552Z,7.20
2019-03-19T08:44:05.420Z,7.00
2019-03-19T08:45:05.394Z,7.60
2019-03-19T08:46:05.395Z,7.30
2019-03-19T08:47:05.293Z,7.20
2019-03-19T08:48:05.275Z,7.40
2019-03-19T08:49:05.233Z,7.00
2019-03-19T08:50:05.193Z,7.30
2019-03-19T08:51:05.198Z,7.00
2019-03-19T08:52:05.153Z,6.80
2019-03-19T08:53:05.084Z,7.20
2019-03-19T08:54:05.058Z,7.30
2019-03-19T08:55:05.024Z,7.70
2019-03-19T08:56:05.020Z,7.40
2019-03-19T08:57:04.950Z,7.00
2019-03-19T08:58:04.914Z,7.00
2019-03-19T08:59:06.119Z,7.30
2019-03-19T09:00:04.848Z,7.50
2019-03-19T09:01:04.825Z,7.70
2019-03-19T09:02:04.793Z,7.30
2019-03-19T09:03:04.729Z,7.70
2019-03-19T09:04:04.679Z,7.50
2019-03-19T09:05:04.644Z,7.20
2019-03-19T09:06:04.647Z,7.70
2019-03-19T09:07:04.584Z,7.30
2019-03-19T09:08:04.563Z,7.10
2019-03-19T09:09:04.502Z,7.10
2019-03-19T09:10:04.467Z,7.60
2019-03-19T09:11:04.443Z,7.50
2019-03-19T09:12:04.425Z,7.20
2019-03-19T09:13:04.372Z,7.30
2019-03-19T09:14:04.384Z,7.40
2019-03-19T09:15:04.295Z,6.70
2019-03-19T09:16:04.248Z,7.20
2019-03-19T09:17:04.239Z,7.60
2019-03-19T09:18:04.181Z,7.90
2019-03-19T09:19:04.143Z,7.90
2019-03-19T09:20:04.127Z,7.20
2019-03-19T09:21:04.106Z,7.10
2019-03-19T09:22:04.084Z,7.00
2019-03-19T09:23:04.014Z,7.20
2019-03-19T09:24:04.006Z,6.90
2019-03-19T09:25:03.942Z,7.40
2019-03-19T09:26:03.922Z,6.60
2019-03-19T09:27:03.870Z,6.60
2019-03-19T09:28:03.876Z,6.70
2019-03-19T09:29:03.827Z,6.80
2019-03-19T09:30:03.772Z,6.80
2019-03-19T09:31:03.738Z,6.40
2019-03-19T09:32:03.708Z,6.80
2019-03-19T09:33:03.709Z,6.80
2019-03-19T09:34:03.641Z,6.80
2019-03-19T09:35:03.624Z,6.40
2019-03-19T09:36:03.561Z,6.70
2019-03-19T09:37:03.524Z,6.30
2019-03-19T09:38:03.557Z,5.50
2019-03-19T09:39:03.494Z,5.40
2019-03-19T09:40:03.446Z,5.10
2019-03-19T09:41:03.393Z,4.80
2019-03-19T09:42:03.369Z,5.30
2019-03-19T09:43:03.319Z,5.10
2019-03-19T09:44:03.323Z,5.10
2019-03-19T09:45:03.261Z,5.30
2019-03-19T09:46:03.239Z,4.90
2019-03-19T09:47:03.187Z,4.90
2019-03-19T09:48:03.172Z,4.50
2019-03-19T09:49:03.116Z,4.70
2019-03-19T09:50:03.077Z,5.00
2019-03-19T09:51:03.084Z,5.40
2019-03-19T09:52:03.024Z,4.60
2019-03-19T09:53:02.993Z,4.30
2019-03-19T09:54:02.972Z,4.50
2019-03-19T09:55:02.911Z,4.50
2019-03-19T09:56:02.920Z,4.60
2019-03-19T09:57:02.854Z,4.70
2019-03-19T09:58:02.823Z,3.90
2019-03-19T09:59:02.794Z,4.00
2019-03-19T10:00:02.789Z,4.20
2019-03-19T10:01:02.717Z,4.10
2019-03-19T10:02:02.687Z,4.00
2019-03-19T10:03:02.704Z,4.20
2019-03-19T10:04:02.625Z,4.80
2019-03-19T10:05:02.622Z,4.60
2019-03-19T10:06:13.591Z,4.90
2019-03-19T10:07:06.288Z,4.80
2019-03-19T10:08:02.483Z,4.30
2019-03-19T10:09:02.455Z,4.50
2019-03-19T10:10:02.435Z,4.30
2019-03-19T10:11:02.429Z,4.20
2019-03-19T10:12:02.367Z,4.30
2019-03-19T10:13:02.342Z,4.20
2019-03-19T10:14:02.288Z,4.60
2019-03-19T10:15:02.291Z,4.60
2019-03-19T10:16:02.245Z,4.50
2019-03-19T10:17:02.216Z,4.60
2019-03-19T10:18:02.157Z,4.80
2019-03-19T10:19:02.123Z,4.40
2019-03-19T10:20:02.081Z,4.80
2019-03-19T10:21:02.074Z,4.90
2019-03-19T10:22:02.021Z,5.00
2019-03-19T10:23:01.999Z,4.90
2019-03-19T10:24:01.979Z,4.70
2019-03-19T10:25:01.935Z,4.60
2019-03-19T10:26:01.891Z,4.80
2019-03-19T10:27:01.869Z,5.00
2019-03-19T10:28:01.833Z,4.90
2019-03-19T10:29:01.820Z,4.80
2019-03-19T10:30:01.777Z,4.90
2019-03-19T10:31:04.518Z,4.70
2019-03-19T10:32:01.710Z,4.70
2019-03-19T10:33:01.670Z,4.80
2019-03-19T10:34:01.619Z,4.50
2019-03-19T10:35:01.615Z,4.40
2019-03-19T10:36:01.566Z,4.70
2019-03-19T10:37:01.553Z,4.30
2019-03-19T10:38:01.497Z,4.60
2019-03-19T10:39:01.456Z,4.50
2019-03-19T10:40:01.452Z,4.40
2019-03-19T10:41:01.390Z,4.40
2019-03-19T10:42:01.359Z,4.30
2019-03-19T10:43:01.342Z,4.40
2019-03-19T10:44:01.285Z,4.40
2019-03-19T10:45:01.268Z,4.50
2019-03-19T10:46:01.218Z,4.40
2019-03-19T10:47:01.195Z,4.20
2019-03-19T10:48:01.183Z,4.20
2019-03-19T10:49:01.136Z,4.70
2019-03-19T10:50:01.088Z,4.00
2019-03-19T10:51:01.065Z,4.60
2019-03-19T10:52:01.024Z,4.00
2019-03-19T10:53:01.040Z,4.40
2019-03-19T10:54:00.981Z,4.40
2019-03-19T10:55:00.927Z,4.40
2019-03-19T10:56:00.917Z,4.30
2019-03-19T10:57:00.856Z,4.30
2019-03-19T10:58:10.621Z,3.90
2019-03-19T10:59:00.789Z,4.10
2019-03-19T11:00:00.767Z,4.20
2019-03-19T11:01:00.750Z,3.80
2019-03-19T11:02:00.752Z,3.70
2019-03-19T11:03:00.665Z,4.10
2019-03-19T11:04:00.660Z,4.30
2019-03-19T11:05:00.590Z,3.80
2019-03-19T11:06:00.570Z,3.60
2019-03-19T11:07:00.530Z,3.70
2019-03-19T11:08:00.509Z,4.00
2019-03-19T11:09:00.514Z,3.70
2019-03-19T11:10:00.443Z,3.70
2019-03-19T11:11:00.402Z,3.90
2019-03-19T11:12:00.359Z,4.30
2019-03-19T11:13:00.352Z,3.70
2019-03-19T11:14:00.331Z,4.20
2019-03-19T11:15:00.271Z,3.80
2019-03-19T11:16:00.253Z,4.10
2019-03-19T11:17:00.207Z,3.90
2019-03-19T11:18:00.182Z,3.90
2019-03-19T11:19:00.126Z,3.70
2019-03-19T11:20:00.282Z,3.70
2019-03-19T11:21:00.072Z,3.90
2019-03-19T11:22:00.040Z,3.60
2019-03-19T11:23:00.003Z,3.60
2019-03-19T11:23:59.959Z,4.00
2019-03-19T11:24:59.958Z,3.40
2019-03-19T11:25:59.899Z,3.60
2019-03-19T11:26:59.864Z,3.70
2019-03-19T11:27:59.844Z,4.00
2019-03-19T11:28:59.805Z,4.50
2019-03-19T11:30:00.236Z,4.30
2019-03-19T11:30:59.737Z,4.20
2019-03-19T11:31:59.708Z,4.10
2019-03-19T11:32:59.681Z,4.00
2019-03-19T11:33:59.652Z,4.20
2019-03-19T11:34:59.617Z,4.00
2019-03-19T11:35:59.594Z,4.20
2019-03-19T11:36:59.554Z,4.40
2019-03-19T11:37:59.504Z,3.80
2019-03-19T11:38:59.473Z,4.20
2019-03-19T11:39:59.446Z,4.30
2019-03-19T11:40:59.440Z,4.30
2019-03-19T11:41:59.378Z,4.00
2019-03-19T11:42:59.342Z,4.20
2019-03-19T11:43:59.307Z,3.90
2019-03-19T11:44:59.298Z,3.90
2019-03-19T11:45:59.248Z,4.10
2019-03-19T11:46:59.241Z,3.80
2019-03-19T11:47:59.181Z,4.20
2019-03-19T11:48:59.136Z,3.60
2019-03-19T11:49:59.105Z,3.60
2019-03-19T11:50:59.072Z,3.70
2019-03-19T11:51:59.072Z,3.80
2019-03-19T11:52:59.014Z,4.20
2019-03-19T11:53:58.975Z,3.80
2019-03-19T11:54:58.943Z,3.80
2019-03-19T11:55:58.900Z,3.60
2019-03-19T11:56:58.891Z,4.00
2019-03-19T11:57:58.828Z,3.90
2019-03-19T11:58:58.813Z,3.80
2019-03-19T11:59:58.777Z,3.60
2019-03-19T12:00:58.738Z,4.10
2019-03-19T12:01:58.722Z,3.90
2019-03-19T12:02:58.673Z,4.10
2019-03-19T12:03:58.641Z,4.20
2019-03-19T12:04:58.615Z,3.60
2019-03-19T12:05:58.594Z,3.90
2019-03-19T12:06:58.530Z,3.90
2019-03-19T12:07:58.498Z,3.90
2019-03-19T12:08:58.462Z,3.60
2019-03-19T12:09:58.427Z,4.20
2019-03-19T12:10:58.422Z,4.40
2019-03-19T12:11:58.372Z,3.90
2019-03-19T12:12:58.359Z,4.20
2019-03-19T12:13:58.298Z,3.80
2019-03-19T12:14:58.258Z,3.90
2019-03-19T12:15:58.217Z,3.80
2019-03-19T12:16:58.186Z,4.00
2019-03-19T12:17:58.179Z,3.90
2019-03-19T12:18:58.144Z,3.80
2019-03-19T12:19:58.083Z,4.20
2019-03-19T12:20:58.047Z,3.70
2019-03-19T12:21:58.027Z,3.70
2019-03-19T12:22:57.975Z,4.00
2019-03-19T12:23:57.966Z,3.90
2019-03-19T12:24:57.916Z,3.50
2019-03-19T12:25:57.875Z,4.10
2019-03-19T12:26:57.848Z,4.10
2019-03-19T12:27:57.801Z,3.50
2019-03-19T12:28:57.790Z,3.30
2019-03-19T12:29:57.738Z,3.70
2019-03-19T12:30:57.692Z,3.40
2019-03-19T12:31:57.689Z,3.20
2019-03-19T12:32:57.637Z,3.40
2019-03-19T12:33:57.589Z,3.40
2019-03-19T12:34:57.559Z,3.60
2019-03-19T12:35:57.936Z,3.20
2019-03-19T12:36:57.520Z,3.50
2019-03-19T12:37:57.466Z,3.40
2019-03-19T12:38:57.426Z,3.70
2019-03-19T12:39:57.388Z,3.40
2019-03-19T12:40:57.378Z,3.20
2019-03-19T12:41:57.321Z,3.30
2019-03-19T12:42:57.285Z,3.20
2019-03-19T12:43:57.263Z,3.50
2019-03-19T12:44:57.226Z,3.50
2019-03-19T12:45:57.214Z,3.30
2019-03-19T12:46:57.157Z,3.40
2019-03-19T12:47:57.124Z,3.40
2019-03-19T12:48:57.092Z,3.40
2019-03-19T12:49:57.060Z,3.90
2019-03-19T12:50:57.048Z,3.60
2019-03-19T12:51:56.982Z,3.30
2019-03-19T12:52:56.945Z,3.50
2019-03-19T12:53:56.915Z,3.70
2019-03-19T12:54:56.874Z,3.50
2019-03-19T12:55:56.893Z,3.40
2019-03-19T12:56:56.828Z,3.40
2019-03-19T12:57:56.827Z,3.20
2019-03-19T12:58:56.748Z,3.30
2019-03-19T12:59:56.718Z,3.80
2019-03-19T13:00:56.731Z,3.40
2019-03-19T13:01:56.675Z,3.50
2019-03-19T13:02:56.626Z,3.30
2019-03-19T13:03:56.590Z,3.20
2019-03-19T13:04:56.550Z,3.20
2019-03-19T13:05:56.534Z,3.50
2019-03-19T13:06:56.479Z,3.10
2019-03-19T13:07:56.451Z,3.00
2019-03-19T13:08:56.415Z,3.20
2019-03-19T13:09:56.383Z,3.10
2019-03-19T13:10:56.381Z,3.70
2019-03-19T13:11:56.360Z,3.70